sensor_id;sensor_type;location;lat;lon;timestamp;P1;durP1;ratioP1;P2;durP2;ratioP2
31966;SDS011;18496;52.042;6.812;2024-02-23T00:01:14;0.55;;;0.20;;
31966;SDS011;18496;52.042;6.812;2024-02-23T00:03:18;1.00;;;0.20;;
31966;SDS011;18496;52.042;6.812;2024-02-23T00:05:22;0.65;;;0.25;;
31966;SDS011;18496;52.042;6.812;2024-02-23T00:07:25;0.10;;;0.10;;
31966;SDS011;18496;52.042;6.812;2024-02-23T00:09:29;0.30;;;0.22;;
31966;SDS011;18496;52.042;6.812;2024-02-23T00:11:33;1.75;;;0.40;;
31966;SDS011;18496;52.042;6.812;2024-02-23T00:13:37;0.70;;;0.50;;
31966;SDS011;18496;52.042;6.812;2024-02-23T00:15:40;3.80;;;0.50;;
31966;SDS011;18496;52.042;6.812;2024-02-23T00:17:44;0.40;;;0.40;;
31966;SDS011;18496;52.042;6.812;2024-02-23T00:19:48;1.95;;;0.40;;
31966;SDS011;18496;52.042;6.812;2024-02-23T00:21:52;0.65;;;0.50;;
31966;SDS011;18496;52.042;6.812;2024-02-23T00:23:56;0.50;;;0.50;;
31966;SDS011;18496;52.042;6.812;2024-02-23T00:25:59;1.27;;;0.50;;
31966;SDS011;18496;52.042;6.812;2024-02-23T00:28:06;0.60;;;0.45;;
31966;SDS011;18496;52.042;6.812;2024-02-23T00:30:10;1.00;;;0.65;;
31966;SDS011;18496;52.042;6.812;2024-02-23T00:32:14;0.95;;;0.40;;
31966;SDS011;18496;52.042;6.812;2024-02-23T00:34:18;0.65;;;0.43;;
31966;SDS011;18496;52.042;6.812;2024-02-23T00:36:22;1.90;;;0.57;;
31966;SDS011;18496;52.042;6.812;2024-02-23T00:38:26;1.17;;;0.60;;
31966;SDS011;18496;52.042;6.812;2024-02-23T00:40:30;2.55;;;0.88;;
31966;SDS011;18496;52.042;6.812;2024-02-23T00:42:33;5.32;;;0.85;;
31966;SDS011;18496;52.042;6.812;2024-02-23T00:44:37;1.88;;;0.80;;
31966;SDS011;18496;52.042;6.812;2024-02-23T00:46:41;1.80;;;0.75;;
31966;SDS011;18496;52.042;6.812;2024-02-23T00:48:45;2.50;;;0.70;;
31966;SDS011;18496;52.042;6.812;2024-02-23T00:50:48;1.20;;;0.80;;
31966;SDS011;18496;52.042;6.812;2024-02-23T00:52:52;1.70;;;1.02;;
31966;SDS011;18496;52.042;6.812;2024-02-23T00:54:56;1.35;;;0.80;;
31966;SDS011;18496;52.042;6.812;2024-02-23T00:57:00;3.47;;;1.17;;
31966;SDS011;18496;52.042;6.812;2024-02-23T00:59:04;2.92;;;0.90;;
31966;SDS011;18496;52.042;6.812;2024-02-23T01:01:07;3.95;;;1.20;;
31966;SDS011;18496;52.042;6.812;2024-02-23T01:03:11;3.55;;;1.30;;
31966;SDS011;18496;52.042;6.812;2024-02-23T01:05:15;4.72;;;1.42;;
31966;SDS011;18496;52.042;6.812;2024-02-23T01:07:18;1.85;;;0.93;;
31966;SDS011;18496;52.042;6.812;2024-02-23T01:09:22;3.38;;;1.17;;
31966;SDS011;18496;52.042;6.812;2024-02-23T01:11:26;2.33;;;0.88;;
31966;SDS011;18496;52.042;6.812;2024-02-23T01:13:29;4.43;;;1.15;;
31966;SDS011;18496;52.042;6.812;2024-02-23T01:15:33;1.48;;;0.80;;
31966;SDS011;18496;52.042;6.812;2024-02-23T01:17:37;3.08;;;1.48;;
31966;SDS011;18496;52.042;6.812;2024-02-23T01:19:41;2.38;;;1.15;;
31966;SDS011;18496;52.042;6.812;2024-02-23T01:21:46;2.80;;;1.55;;
31966;SDS011;18496;52.042;6.812;2024-02-23T01:23:49;7.63;;;1.40;;
31966;SDS011;18496;52.042;6.812;2024-02-23T01:25:53;2.75;;;1.45;;
31966;SDS011;18496;52.042;6.812;2024-02-23T01:27:57;3.70;;;1.60;;
31966;SDS011;18496;52.042;6.812;2024-02-23T01:30:00;5.00;;;1.80;;
31966;SDS011;18496;52.042;6.812;2024-02-23T01:32:04;7.30;;;1.85;;
31966;SDS011;18496;52.042;6.812;2024-02-23T01:34:08;4.32;;;1.75;;
31966;SDS011;18496;52.042;6.812;2024-02-23T01:36:12;3.35;;;1.90;;
31966;SDS011;18496;52.042;6.812;2024-02-23T01:38:16;7.63;;;2.53;;
31966;SDS011;18496;52.042;6.812;2024-02-23T01:40:23;5.85;;;2.63;;
31966;SDS011;18496;52.042;6.812;2024-02-23T01:42:27;8.32;;;2.60;;
31966;SDS011;18496;52.042;6.812;2024-02-23T01:44:31;5.20;;;2.80;;
31966;SDS011;18496;52.042;6.812;2024-02-23T01:46:35;3.65;;;2.50;;
31966;SDS011;18496;52.042;6.812;2024-02-23T01:48:39;7.40;;;3.25;;
31966;SDS011;18496;52.042;6.812;2024-02-23T01:50:43;7.13;;;2.75;;
31966;SDS011;18496;52.042;6.812;2024-02-23T01:52:47;8.68;;;2.78;;
31966;SDS011;18496;52.042;6.812;2024-02-23T01:54:52;5.70;;;2.92;;
31966;SDS011;18496;52.042;6.812;2024-02-23T01:56:57;4.78;;;2.70;;
31966;SDS011;18496;52.042;6.812;2024-02-23T01:59:02;6.68;;;2.95;;
31966;SDS011;18496;52.042;6.812;2024-02-23T02:01:06;5.75;;;2.75;;
31966;SDS011;18496;52.042;6.812;2024-02-23T02:03:10;5.55;;;3.10;;
31966;SDS011;18496;52.042;6.812;2024-02-23T02:05:14;9.70;;;3.10;;
31966;SDS011;18496;52.042;6.812;2024-02-23T02:07:18;6.47;;;3.05;;
31966;SDS011;18496;52.042;6.812;2024-02-23T02:09:23;5.00;;;2.63;;
31966;SDS011;18496;52.042;6.812;2024-02-23T02:11:26;7.28;;;2.67;;
31966;SDS011;18496;52.042;6.812;2024-02-23T02:13:30;5.07;;;2.50;;
31966;SDS011;18496;52.042;6.812;2024-02-23T02:15:34;7.00;;;2.55;;
31966;SDS011;18496;52.042;6.812;2024-02-23T02:17:38;4.75;;;2.05;;
31966;SDS011;18496;52.042;6.812;2024-02-23T02:19:45;4.90;;;2.22;;
31966;SDS011;18496;52.042;6.812;2024-02-23T02:21:51;11.27;;;3.05;;
31966;SDS011;18496;52.042;6.812;2024-02-23T02:23:54;9.27;;;3.30;;
31966;SDS011;18496;52.042;6.812;2024-02-23T02:25:59;8.65;;;2.83;;
31966;SDS011;18496;52.042;6.812;2024-02-23T02:28:05;5.85;;;2.58;;
31966;SDS011;18496;52.042;6.812;2024-02-23T02:30:11;7.80;;;2.38;;
31966;SDS011;18496;52.042;6.812;2024-02-23T02:32:15;5.60;;;1.98;;
31966;SDS011;18496;52.042;6.812;2024-02-23T02:34:19;2.90;;;1.75;;
31966;SDS011;18496;52.042;6.812;2024-02-23T02:36:22;7.13;;;2.33;;
31966;SDS011;18496;52.042;6.812;2024-02-23T02:38:26;7.05;;;1.70;;
31966;SDS011;18496;52.042;6.812;2024-02-23T02:40:30;4.55;;;1.85;;
31966;SDS011;18496;52.042;6.812;2024-02-23T02:42:34;5.28;;;1.75;;
31966;SDS011;18496;52.042;6.812;2024-02-23T02:44:38;12.05;;;1.52;;
31966;SDS011;18496;52.042;6.812;2024-02-23T02:46:42;7.18;;;1.60;;
31966;SDS011;18496;52.042;6.812;2024-02-23T02:48:45;8.93;;;2.05;;
31966;SDS011;18496;52.042;6.812;2024-02-23T02:50:49;2.42;;;1.20;;
31966;SDS011;18496;52.042;6.812;2024-02-23T02:52:54;5.15;;;1.33;;
31966;SDS011;18496;52.042;6.812;2024-02-23T02:54:58;5.05;;;1.63;;
31966;SDS011;18496;52.042;6.812;2024-02-23T02:57:02;6.50;;;1.90;;
31966;SDS011;18496;52.042;6.812;2024-02-23T02:59:05;5.57;;;1.45;;
31966;SDS011;18496;52.042;6.812;2024-02-23T03:01:09;3.92;;;1.50;;
31966;SDS011;18496;52.042;6.812;2024-02-23T03:03:13;4.97;;;1.00;;
31966;SDS011;18496;52.042;6.812;2024-02-23T03:05:17;6.10;;;1.45;;
31966;SDS011;18496;52.042;6.812;2024-02-23T03:07:20;4.97;;;1.25;;
31966;SDS011;18496;52.042;6.812;2024-02-23T03:09:24;8.10;;;1.40;;
31966;SDS011;18496;52.042;6.812;2024-02-23T03:11:28;3.50;;;1.48;;
31966;SDS011;18496;52.042;6.812;2024-02-23T03:13:31;6.53;;;1.38;;
31966;SDS011;18496;52.042;6.812;2024-02-23T03:15:35;8.32;;;1.58;;
31966;SDS011;18496;52.042;6.812;2024-02-23T03:17:39;5.10;;;1.42;;
31966;SDS011;18496;52.042;6.812;2024-02-23T03:19:42;12.75;;;1.85;;
31966;SDS011;18496;52.042;6.812;2024-02-23T03:21:46;9.20;;;1.33;;
31966;SDS011;18496;52.042;6.812;2024-02-23T03:23:50;4.88;;;2.00;;
31966;SDS011;18496;52.042;6.812;2024-02-23T03:25:53;5.70;;;1.85;;
31966;SDS011;18496;52.042;6.812;2024-02-23T03:27:57;9.77;;;1.58;;
31966;SDS011;18496;52.042;6.812;2024-02-23T03:30:01;5.40;;;1.20;;
31966;SDS011;18496;52.042;6.812;2024-02-23T03:32:06;10.43;;;1.83;;
31966;SDS011;18496;52.042;6.812;2024-02-23T03:34:10;2.47;;;1.48;;
31966;SDS011;18496;52.042;6.812;2024-02-23T03:36:14;4.05;;;1.67;;
31966;SDS011;18496;52.042;6.812;2024-02-23T03:38:17;7.82;;;1.42;;
31966;SDS011;18496;52.042;6.812;2024-02-23T03:40:21;6.25;;;1.30;;
31966;SDS011;18496;52.042;6.812;2024-02-23T03:42:25;7.00;;;1.30;;
31966;SDS011;18496;52.042;6.812;2024-02-23T03:44:29;2.72;;;1.27;;
31966;SDS011;18496;52.042;6.812;2024-02-23T03:46:34;5.38;;;1.30;;
31966;SDS011;18496;52.042;6.812;2024-02-23T03:48:38;7.82;;;1.50;;
31966;SDS011;18496;52.042;6.812;2024-02-23T03:50:42;9.38;;;1.52;;
31966;SDS011;18496;52.042;6.812;2024-02-23T03:52:45;5.05;;;1.58;;
31966;SDS011;18496;52.042;6.812;2024-02-23T03:54:49;5.68;;;1.40;;
31966;SDS011;18496;52.042;6.812;2024-02-23T03:56:55;8.00;;;1.30;;
31966;SDS011;18496;52.042;6.812;2024-02-23T03:58:58;5.20;;;1.20;;
31966;SDS011;18496;52.042;6.812;2024-02-23T04:01:02;7.45;;;1.42;;
31966;SDS011;18496;52.042;6.812;2024-02-23T04:03:06;6.68;;;1.08;;
31966;SDS011;18496;52.042;6.812;2024-02-23T04:05:09;6.80;;;1.70;;
31966;SDS011;18496;52.042;6.812;2024-02-23T04:07:13;3.72;;;1.58;;
31966;SDS011;18496;52.042;6.812;2024-02-23T04:09:17;6.22;;;1.25;;
31966;SDS011;18496;52.042;6.812;2024-02-23T04:11:21;10.52;;;1.90;;
31966;SDS011;18496;52.042;6.812;2024-02-23T04:13:25;8.98;;;1.48;;
31966;SDS011;18496;52.042;6.812;2024-02-23T04:15:28;9.23;;;1.90;;
31966;SDS011;18496;52.042;6.812;2024-02-23T04:17:32;6.30;;;2.17;;
31966;SDS011;18496;52.042;6.812;2024-02-23T04:19:36;8.57;;;1.67;;
31966;SDS011;18496;52.042;6.812;2024-02-23T04:21:39;6.82;;;1.60;;
31966;SDS011;18496;52.042;6.812;2024-02-23T04:23:43;5.93;;;2.00;;
31966;SDS011;18496;52.042;6.812;2024-02-23T04:25:47;10.23;;;1.80;;
31966;SDS011;18496;52.042;6.812;2024-02-23T04:27:51;5.63;;;1.48;;
31966;SDS011;18496;52.042;6.812;2024-02-23T04:29:54;5.00;;;1.38;;
31966;SDS011;18496;52.042;6.812;2024-02-23T04:32:01;5.35;;;2.17;;
31966;SDS011;18496;52.042;6.812;2024-02-23T04:34:06;7.60;;;2.13;;
31966;SDS011;18496;52.042;6.812;2024-02-23T04:36:09;7.10;;;1.35;;
31966;SDS011;18496;52.042;6.812;2024-02-23T04:38:13;6.72;;;2.05;;
31966;SDS011;18496;52.042;6.812;2024-02-23T04:40:17;6.50;;;1.70;;
31966;SDS011;18496;52.042;6.812;2024-02-23T04:42:20;5.20;;;1.42;;
31966;SDS011;18496;52.042;6.812;2024-02-23T04:44:24;9.25;;;2.03;;
31966;SDS011;18496;52.042;6.812;2024-02-23T04:46:27;9.07;;;2.55;;
31966;SDS011;18496;52.042;6.812;2024-02-23T04:48:31;6.53;;;1.65;;
31966;SDS011;18496;52.042;6.812;2024-02-23T04:50:35;7.78;;;1.58;;
31966;SDS011;18496;52.042;6.812;2024-02-23T04:52:39;15.02;;;1.70;;
31966;SDS011;18496;52.042;6.812;2024-02-23T04:54:42;6.18;;;1.58;;
31966;SDS011;18496;52.042;6.812;2024-02-23T04:56:46;5.13;;;1.45;;
31966;SDS011;18496;52.042;6.812;2024-02-23T04:58:51;13.80;;;2.00;;
31966;SDS011;18496;52.042;6.812;2024-02-23T05:00:54;5.22;;;1.52;;
31966;SDS011;18496;52.042;6.812;2024-02-23T05:02:59;6.50;;;1.92;;
31966;SDS011;18496;52.042;6.812;2024-02-23T05:05:06;6.07;;;1.80;;
31966;SDS011;18496;52.042;6.812;2024-02-23T05:07:10;12.48;;;2.10;;
31966;SDS011;18496;52.042;6.812;2024-02-23T05:09:14;7.32;;;1.80;;
31966;SDS011;18496;52.042;6.812;2024-02-23T05:11:18;5.68;;;1.50;;
31966;SDS011;18496;52.042;6.812;2024-02-23T05:13:21;6.10;;;1.92;;
31966;SDS011;18496;52.042;6.812;2024-02-23T05:15:26;10.32;;;2.53;;
31966;SDS011;18496;52.042;6.812;2024-02-23T05:17:29;11.35;;;1.85;;
31966;SDS011;18496;52.042;6.812;2024-02-23T05:19:33;3.05;;;1.33;;
31966;SDS011;18496;52.042;6.812;2024-02-23T05:21:37;6.18;;;1.10;;
31966;SDS011;18496;52.042;6.812;2024-02-23T05:23:40;6.05;;;1.50;;
31966;SDS011;18496;52.042;6.812;2024-02-23T05:25:44;4.10;;;1.00;;
31966;SDS011;18496;52.042;6.812;2024-02-23T05:27:48;5.90;;;1.42;;
31966;SDS011;18496;52.042;6.812;2024-02-23T05:29:52;6.93;;;1.33;;
31966;SDS011;18496;52.042;6.812;2024-02-23T05:31:56;6.97;;;1.88;;
31966;SDS011;18496;52.042;6.812;2024-02-23T05:33:59;9.38;;;1.83;;
31966;SDS011;18496;52.042;6.812;2024-02-23T05:36:04;10.75;;;1.65;;
31966;SDS011;18496;52.042;6.812;2024-02-23T05:38:08;9.05;;;2.03;;
31966;SDS011;18496;52.042;6.812;2024-02-23T05:40:12;4.63;;;1.75;;
31966;SDS011;18496;52.042;6.812;2024-02-23T05:42:15;12.23;;;1.75;;
31966;SDS011;18496;52.042;6.812;2024-02-23T05:44:19;10.10;;;1.92;;
31966;SDS011;18496;52.042;6.812;2024-02-23T05:46:23;6.40;;;2.25;;
31966;SDS011;18496;52.042;6.812;2024-02-23T05:48:26;9.45;;;1.60;;
31966;SDS011;18496;52.042;6.812;2024-02-23T05:50:30;5.35;;;1.35;;
31966;SDS011;18496;52.042;6.812;2024-02-23T05:52:35;7.32;;;1.77;;
31966;SDS011;18496;52.042;6.812;2024-02-23T05:54:39;5.47;;;1.45;;
31966;SDS011;18496;52.042;6.812;2024-02-23T05:56:44;6.35;;;1.27;;
31966;SDS011;18496;52.042;6.812;2024-02-23T05:58:49;2.83;;;1.38;;
31966;SDS011;18496;52.042;6.812;2024-02-23T06:00:53;5.68;;;1.55;;
31966;SDS011;18496;52.042;6.812;2024-02-23T06:02:56;5.10;;;1.55;;
31966;SDS011;18496;52.042;6.812;2024-02-23T06:05:00;11.73;;;1.63;;
31966;SDS011;18496;52.042;6.812;2024-02-23T06:07:04;5.75;;;1.38;;
31966;SDS011;18496;52.042;6.812;2024-02-23T06:09:07;10.98;;;1.77;;
31966;SDS011;18496;52.042;6.812;2024-02-23T06:11:11;12.93;;;1.85;;
31966;SDS011;18496;52.042;6.812;2024-02-23T06:13:15;7.07;;;1.33;;
31966;SDS011;18496;52.042;6.812;2024-02-23T06:15:19;10.70;;;1.60;;
31966;SDS011;18496;52.042;6.812;2024-02-23T06:17:22;4.82;;;1.80;;
31966;SDS011;18496;52.042;6.812;2024-02-23T06:19:26;5.05;;;1.17;;
31966;SDS011;18496;52.042;6.812;2024-02-23T06:21:30;8.07;;;1.20;;
31966;SDS011;18496;52.042;6.812;2024-02-23T06:23:34;5.90;;;1.33;;
31966;SDS011;18496;52.042;6.812;2024-02-23T06:25:38;10.60;;;1.80;;
31966;SDS011;18496;52.042;6.812;2024-02-23T06:27:42;6.43;;;1.38;;
31966;SDS011;18496;52.042;6.812;2024-02-23T06:29:46;6.80;;;1.35;;
31966;SDS011;18496;52.042;6.812;2024-02-23T06:31:50;11.63;;;2.13;;
31966;SDS011;18496;52.042;6.812;2024-02-23T06:33:53;3.33;;;1.35;;
31966;SDS011;18496;52.042;6.812;2024-02-23T06:35:57;6.00;;;1.23;;
31966;SDS011;18496;52.042;6.812;2024-02-23T06:38:00;7.13;;;1.85;;
31966;SDS011;18496;52.042;6.812;2024-02-23T06:40:04;10.30;;;1.98;;
31966;SDS011;18496;52.042;6.812;2024-02-23T06:42:10;8.75;;;1.63;;
31966;SDS011;18496;52.042;6.812;2024-02-23T06:44:13;6.15;;;1.40;;
31966;SDS011;18496;52.042;6.812;2024-02-23T06:46:18;8.25;;;1.27;;
31966;SDS011;18496;52.042;6.812;2024-02-23T06:48:24;3.55;;;1.02;;
31966;SDS011;18496;52.042;6.812;2024-02-23T06:50:29;8.00;;;1.25;;
31966;SDS011;18496;52.042;6.812;2024-02-23T06:52:32;3.70;;;1.00;;
31966;SDS011;18496;52.042;6.812;2024-02-23T06:54:36;4.10;;;1.15;;
31966;SDS011;18496;52.042;6.812;2024-02-23T06:56:40;5.68;;;1.50;;
31966;SDS011;18496;52.042;6.812;2024-02-23T06:58:43;5.10;;;1.48;;
31966;SDS011;18496;52.042;6.812;2024-02-23T07:00:47;12.48;;;1.60;;
31966;SDS011;18496;52.042;6.812;2024-02-23T07:02:51;11.75;;;1.20;;
31966;SDS011;18496;52.042;6.812;2024-02-23T07:04:55;7.50;;;1.65;;
31966;SDS011;18496;52.042;6.812;2024-02-23T07:07:00;2.65;;;1.20;;
31966;SDS011;18496;52.042;6.812;2024-02-23T07:09:10;12.20;;;1.60;;
31966;SDS011;18496;52.042;6.812;2024-02-23T07:11:14;7.18;;;1.23;;
31966;SDS011;18496;52.042;6.812;2024-02-23T07:13:18;5.75;;;1.27;;
31966;SDS011;18496;52.042;6.812;2024-02-23T07:15:23;9.35;;;1.35;;
31966;SDS011;18496;52.042;6.812;2024-02-23T07:17:27;6.22;;;1.70;;
31966;SDS011;18496;52.042;6.812;2024-02-23T07:19:31;6.75;;;1.40;;
31966;SDS011;18496;52.042;6.812;2024-02-23T07:21:35;6.13;;;1.38;;
31966;SDS011;18496;52.042;6.812;2024-02-23T07:23:38;7.78;;;1.52;;
31966;SDS011;18496;52.042;6.812;2024-02-23T07:25:42;2.65;;;0.98;;
31966;SDS011;18496;52.042;6.812;2024-02-23T07:27:46;8.32;;;1.70;;
31966;SDS011;18496;52.042;6.812;2024-02-23T07:29:52;8.85;;;1.50;;
31966;SDS011;18496;52.042;6.812;2024-02-23T07:31:55;12.23;;;1.38;;
31966;SDS011;18496;52.042;6.812;2024-02-23T07:33:59;2.58;;;1.10;;
31966;SDS011;18496;52.042;6.812;2024-02-23T07:36:03;8.30;;;1.67;;
31966;SDS011;18496;52.042;6.812;2024-02-23T07:38:07;3.75;;;1.15;;
31966;SDS011;18496;52.042;6.812;2024-02-23T07:40:11;7.15;;;1.42;;
31966;SDS011;18496;52.042;6.812;2024-02-23T07:42:16;4.85;;;1.50;;
31966;SDS011;18496;52.042;6.812;2024-02-23T07:44:21;9.45;;;2.33;;
31966;SDS011;18496;52.042;6.812;2024-02-23T07:46:25;3.60;;;1.38;;
31966;SDS011;18496;52.042;6.812;2024-02-23T07:48:29;7.45;;;1.40;;
31966;SDS011;18496;52.042;6.812;2024-02-23T07:50:33;7.22;;;1.40;;
31966;SDS011;18496;52.042;6.812;2024-02-23T07:52:36;8.98;;;1.73;;
31966;SDS011;18496;52.042;6.812;2024-02-23T07:54:41;8.98;;;2.03;;
31966;SDS011;18496;52.042;6.812;2024-02-23T07:56:45;8.68;;;1.77;;
31966;SDS011;18496;52.042;6.812;2024-02-23T07:58:49;3.28;;;1.30;;
31966;SDS011;18496;52.042;6.812;2024-02-23T08:00:52;10.02;;;1.50;;
31966;SDS011;18496;52.042;6.812;2024-02-23T08:02:56;7.30;;;1.55;;
31966;SDS011;18496;52.042;6.812;2024-02-23T08:05:00;10.68;;;2.10;;
31966;SDS011;18496;52.042;6.812;2024-02-23T08:07:04;12.48;;;1.90;;
31966;SDS011;18496;52.042;6.812;2024-02-23T08:09:08;6.68;;;1.63;;
31966;SDS011;18496;52.042;6.812;2024-02-23T08:11:12;8.35;;;1.35;;
31966;SDS011;18496;52.042;6.812;2024-02-23T08:13:16;6.45;;;1.65;;
31966;SDS011;18496;52.042;6.812;2024-02-23T08:15:21;11.00;;;1.90;;
31966;SDS011;18496;52.042;6.812;2024-02-23T08:17:24;8.10;;;1.45;;
31966;SDS011;18496;52.042;6.812;2024-02-23T08:19:29;7.53;;;1.13;;
31966;SDS011;18496;52.042;6.812;2024-02-23T08:21:32;8.68;;;1.75;;
31966;SDS011;18496;52.042;6.812;2024-02-23T08:23:36;3.75;;;1.17;;
31966;SDS011;18496;52.042;6.812;2024-02-23T08:25:40;10.45;;;1.67;;
31966;SDS011;18496;52.042;6.812;2024-02-23T08:27:44;6.95;;;1.35;;
31966;SDS011;18496;52.042;6.812;2024-02-23T08:29:47;3.55;;;1.15;;
31966;SDS011;18496;52.042;6.812;2024-02-23T08:31:51;5.72;;;1.90;;
31966;SDS011;18496;52.042;6.812;2024-02-23T08:33:55;10.30;;;1.40;;
31966;SDS011;18496;52.042;6.812;2024-02-23T08:35:59;6.20;;;1.15;;
31966;SDS011;18496;52.042;6.812;2024-02-23T08:38:03;4.97;;;1.80;;
31966;SDS011;18496;52.042;6.812;2024-02-23T08:40:07;6.20;;;1.45;;
31966;SDS011;18496;52.042;6.812;2024-02-23T08:42:12;6.97;;;1.50;;
31966;SDS011;18496;52.042;6.812;2024-02-23T08:44:15;6.53;;;1.77;;
31966;SDS011;18496;52.042;6.812;2024-02-23T08:46:19;5.70;;;1.40;;
31966;SDS011;18496;52.042;6.812;2024-02-23T08:48:23;8.85;;;1.67;;
31966;SDS011;18496;52.042;6.812;2024-02-23T08:50:26;6.72;;;1.85;;
31966;SDS011;18496;52.042;6.812;2024-02-23T08:52:30;14.77;;;1.52;;
31966;SDS011;18496;52.042;6.812;2024-02-23T08:54:34;9.73;;;1.83;;
31966;SDS011;18496;52.042;6.812;2024-02-23T08:56:38;7.00;;;1.42;;
31966;SDS011;18496;52.042;6.812;2024-02-23T08:58:45;9.25;;;1.38;;
31966;SDS011;18496;52.042;6.812;2024-02-23T09:00:49;2.65;;;0.90;;
31966;SDS011;18496;52.042;6.812;2024-02-23T09:02:53;9.15;;;1.85;;
31966;SDS011;18496;52.042;6.812;2024-02-23T09:04:56;5.72;;;1.25;;
31966;SDS011;18496;52.042;6.812;2024-02-23T09:07:00;4.60;;;0.90;;
31966;SDS011;18496;52.042;6.812;2024-02-23T09:09:04;4.38;;;1.08;;
31966;SDS011;18496;52.042;6.812;2024-02-23T09:11:08;8.15;;;1.20;;
31966;SDS011;18496;52.042;6.812;2024-02-23T09:13:11;7.72;;;2.17;;
31966;SDS011;18496;52.042;6.812;2024-02-23T09:15:15;4.28;;;1.38;;
31966;SDS011;18496;52.042;6.812;2024-02-23T09:17:19;4.05;;;1.10;;
31966;SDS011;18496;52.042;6.812;2024-02-23T09:19:23;11.75;;;1.83;;
31966;SDS011;18496;52.042;6.812;2024-02-23T09:21:27;2.78;;;1.02;;
31966;SDS011;18496;52.042;6.812;2024-02-23T09:23:31;9.77;;;1.23;;
31966;SDS011;18496;52.042;6.812;2024-02-23T09:25:35;8.18;;;1.20;;
31966;SDS011;18496;52.042;6.812;2024-02-23T09:27:39;5.53;;;1.25;;
31966;SDS011;18496;52.042;6.812;2024-02-23T09:29:46;7.53;;;1.45;;
31966;SDS011;18496;52.042;6.812;2024-02-23T09:31:50;4.43;;;1.02;;
31966;SDS011;18496;52.042;6.812;2024-02-23T09:33:54;5.53;;;1.48;;
31966;SDS011;18496;52.042;6.812;2024-02-23T09:35:58;4.63;;;1.00;;
31966;SDS011;18496;52.042;6.812;2024-02-23T09:38:02;4.93;;;1.45;;
31966;SDS011;18496;52.042;6.812;2024-02-23T09:40:06;5.50;;;1.05;;
31966;SDS011;18496;52.042;6.812;2024-02-23T09:42:10;3.40;;;1.35;;
31966;SDS011;18496;52.042;6.812;2024-02-23T09:44:14;8.52;;;1.23;;
31966;SDS011;18496;52.042;6.812;2024-02-23T09:46:21;3.35;;;0.77;;
31966;SDS011;18496;52.042;6.812;2024-02-23T09:48:25;8.02;;;1.17;;
31966;SDS011;18496;52.042;6.812;2024-02-23T09:50:29;5.90;;;1.25;;
31966;SDS011;18496;52.042;6.812;2024-02-23T09:52:33;8.80;;;1.90;;
31966;SDS011;18496;52.042;6.812;2024-02-23T09:54:37;6.10;;;0.90;;
31966;SDS011;18496;52.042;6.812;2024-02-23T09:56:43;2.28;;;0.90;;
31966;SDS011;18496;52.042;6.812;2024-02-23T09:58:47;7.50;;;1.45;;
31966;SDS011;18496;52.042;6.812;2024-02-23T10:00:53;6.40;;;1.10;;
31966;SDS011;18496;52.042;6.812;2024-02-23T10:02:58;5.93;;;1.13;;
31966;SDS011;18496;52.042;6.812;2024-02-23T10:05:01;7.32;;;1.63;;
31966;SDS011;18496;52.042;6.812;2024-02-23T10:07:06;9.18;;;1.10;;
31966;SDS011;18496;52.042;6.812;2024-02-23T10:09:10;3.60;;;1.23;;
31966;SDS011;18496;52.042;6.812;2024-02-23T10:11:19;2.92;;;1.45;;
31966;SDS011;18496;52.042;6.812;2024-02-23T10:13:26;6.70;;;1.38;;
31966;SDS011;18496;52.042;6.812;2024-02-23T10:15:32;6.30;;;1.73;;
31966;SDS011;18496;52.042;6.812;2024-02-23T10:17:36;5.95;;;1.35;;
31966;SDS011;18496;52.042;6.812;2024-02-23T10:19:39;5.80;;;1.20;;
31966;SDS011;18496;52.042;6.812;2024-02-23T10:21:43;5.95;;;1.67;;
31966;SDS011;18496;52.042;6.812;2024-02-23T10:23:48;9.98;;;3.17;;
31966;SDS011;18496;52.042;6.812;2024-02-23T10:25:53;11.23;;;1.90;;
31966;SDS011;18496;52.042;6.812;2024-02-23T10:27:57;6.20;;;1.40;;
31966;SDS011;18496;52.042;6.812;2024-02-23T10:30:03;4.03;;;1.05;;
31966;SDS011;18496;52.042;6.812;2024-02-23T10:32:07;4.63;;;1.13;;
31966;SDS011;18496;52.042;6.812;2024-02-23T10:34:17;5.45;;;0.93;;
31966;SDS011;18496;52.042;6.812;2024-02-23T10:36:22;6.22;;;1.13;;
31966;SDS011;18496;52.042;6.812;2024-02-23T10:38:32;11.88;;;1.50;;
31966;SDS011;18496;52.042;6.812;2024-02-23T10:40:36;4.90;;;1.33;;
31966;SDS011;18496;52.042;6.812;2024-02-23T10:42:44;5.28;;;1.27;;
31966;SDS011;18496;52.042;6.812;2024-02-23T10:44:54;8.80;;;2.20;;
31966;SDS011;18496;52.042;6.812;2024-02-23T10:47:04;6.22;;;1.40;;
31966;SDS011;18496;52.042;6.812;2024-02-23T10:49:08;10.70;;;2.63;;
31966;SDS011;18496;52.042;6.812;2024-02-23T10:51:14;4.25;;;1.20;;
31966;SDS011;18496;52.042;6.812;2024-02-23T10:53:18;7.60;;;1.27;;
31966;SDS011;18496;52.042;6.812;2024-02-23T10:55:22;4.28;;;1.00;;
31966;SDS011;18496;52.042;6.812;2024-02-23T10:57:32;7.28;;;1.17;;
31966;SDS011;18496;52.042;6.812;2024-02-23T10:59:37;5.15;;;1.10;;
31966;SDS011;18496;52.042;6.812;2024-02-23T11:01:42;3.58;;;1.02;;
31966;SDS011;18496;52.042;6.812;2024-02-23T11:03:46;4.40;;;1.50;;
31966;SDS011;18496;52.042;6.812;2024-02-23T11:05:53;6.28;;;1.42;;
31966;SDS011;18496;52.042;6.812;2024-02-23T11:07:57;5.03;;;1.00;;
31966;SDS011;18496;52.042;6.812;2024-02-23T11:10:01;4.38;;;0.80;;
31966;SDS011;18496;52.042;6.812;2024-02-23T11:12:08;5.50;;;1.13;;
31966;SDS011;18496;52.042;6.812;2024-02-23T11:14:13;8.02;;;1.20;;
31966;SDS011;18496;52.042;6.812;2024-02-23T11:16:23;5.22;;;1.35;;
31966;SDS011;18496;52.042;6.812;2024-02-23T11:18:28;5.45;;;1.10;;
31966;SDS011;18496;52.042;6.812;2024-02-23T11:20:36;5.45;;;1.25;;
31966;SDS011;18496;52.042;6.812;2024-02-23T11:22:40;2.05;;;0.88;;
31966;SDS011;18496;52.042;6.812;2024-02-23T11:24:44;8.95;;;1.10;;
31966;SDS011;18496;52.042;6.812;2024-02-23T11:26:48;4.32;;;1.00;;
31966;SDS011;18496;52.042;6.812;2024-02-23T11:28:53;5.90;;;1.50;;
31966;SDS011;18496;52.042;6.812;2024-02-23T11:30:57;9.85;;;1.30;;
31966;SDS011;18496;52.042;6.812;2024-02-23T11:33:07;7.25;;;0.80;;
31966;SDS011;18496;52.042;6.812;2024-02-23T11:35:11;7.00;;;1.58;;
31966;SDS011;18496;52.042;6.812;2024-02-23T11:37:16;4.63;;;1.08;;
31966;SDS011;18496;52.042;6.812;2024-02-23T11:39:22;4.00;;;1.35;;
31966;SDS011;18496;52.042;6.812;2024-02-23T11:41:26;5.90;;;1.52;;
31966;SDS011;18496;52.042;6.812;2024-02-23T11:43:34;8.05;;;1.35;;
31966;SDS011;18496;52.042;6.812;2024-02-23T11:45:38;9.75;;;1.27;;
31966;SDS011;18496;52.042;6.812;2024-02-23T11:47:46;8.88;;;1.50;;
31966;SDS011;18496;52.042;6.812;2024-02-23T11:50:01;5.13;;;1.17;;
31966;SDS011;18496;52.042;6.812;2024-02-23T11:52:05;8.77;;;1.67;;
31966;SDS011;18496;52.042;6.812;2024-02-23T11:54:09;11.07;;;3.30;;
31966;SDS011;18496;52.042;6.812;2024-02-23T11:56:13;13.85;;;4.53;;
31966;SDS011;18496;52.042;6.812;2024-02-23T11:58:17;12.50;;;4.93;;
31966;SDS011;18496;52.042;6.812;2024-02-23T12:00:21;10.30;;;3.67;;
31966;SDS011;18496;52.042;6.812;2024-02-23T12:02:27;7.57;;;2.13;;
31966;SDS011;18496;52.042;6.812;2024-02-23T12:04:30;8.43;;;1.48;;
31966;SDS011;18496;52.042;6.812;2024-02-23T12:06:34;7.90;;;1.27;;
31966;SDS011;18496;52.042;6.812;2024-02-23T12:08:38;6.45;;;1.80;;
31966;SDS011;18496;52.042;6.812;2024-02-23T12:10:42;6.40;;;1.65;;
31966;SDS011;18496;52.042;6.812;2024-02-23T12:12:45;8.32;;;1.90;;
31966;SDS011;18496;52.042;6.812;2024-02-23T12:14:49;8.98;;;2.55;;
31966;SDS011;18496;52.042;6.812;2024-02-23T12:16:53;16.05;;;5.00;;
31966;SDS011;18496;52.042;6.812;2024-02-23T12:18:57;10.80;;;3.72;;
31966;SDS011;18496;52.042;6.812;2024-02-23T12:21:01;8.15;;;3.42;;
31966;SDS011;18496;52.042;6.812;2024-02-23T12:23:07;5.18;;;1.30;;
31966;SDS011;18496;52.042;6.812;2024-02-23T12:25:12;4.00;;;1.10;;
31966;SDS011;18496;52.042;6.812;2024-02-23T12:27:16;7.13;;;2.00;;